Time;durP1;ratioP1;P1;durP2;ratioP2;P2;SDS_P1;SDS_P2;PMS_P1;PMS_P2;Temp;Humidity;BMP_temperature;BMP_pressure;BME280_temperature;BME280_humidity;BME280_pressure;Samples;Min_cycle;Max_cycle;Signal;HPM_P1;HPM_P2
2021/03/03 15:15:39;;;;;;;1999.90;999.90;;;15.40;97.10;;;;;;5064191;28;20563;-62
2021/03/03 15:18:05;;;;;;;1999.90;999.90;;;16.50;72.10;;;;;;5041043;28;20429;-63
2021/03/03 15:20:31;;;;;;;1999.90;999.90;;;17.40;62.50;;;;;;5044246;28;21055;-65
2021/03/03 15:22:57;;;;;;;1999.90;999.90;;;18.10;58.90;;;;;;5042677;28;20193;-63
2021/03/03 15:25:24;;;;;;;1999.90;999.90;;;18.70;57.60;;;;;;5039172;28;20178;-63
2021/03/03 15:27:50;;;;;;;1999.90;999.90;;;19.20;57.50;;;;;;5042144;28;20432;-66
2021/03/03 15:30:16;;;;;;;1999.90;999.90;;;19.50;54.80;;;;;;5043178;28;20849;-63
2021/03/03 15:32:43;;;;;;;1999.90;999.90;;;19.80;53.90;;;;;;5040292;28;20436;-65
2021/03/03 15:35:09;;;;;;;1999.90;999.90;;;20.00;52.60;;;;;;5019433;28;20481;-66
2021/03/03 15:37:36;;;;;;;1999.90;999.90;;;20.10;52.00;;;;;;5016209;28;20472;-67
2021/03/03 15:40:03;;;;;;;1999.90;999.90;;;20.10;51.10;;;;;;5022469;28;20448;-64
2021/03/03 15:42:29;;;;;;;1999.90;999.90;;;20.20;51.40;;;;;;5021779;28;20437;-65
2021/03/03 15:44:55;;;;;;;1999.90;999.90;;;20.30;50.80;;;;;;5026392;28;20425;-65
2021/03/03 15:47:21;;;;;;;1999.90;999.90;;;20.40;52.50;;;;;;5025650;28;20447;-63
2021/03/03 15:49:47;;;;;;;1999.90;999.90;;;20.60;54.40;;;;;;5030111;28;21157;-67
2021/03/03 15:52:13;;;;;;;1999.90;999.90;;;20.80;55.30;;;;;;5029289;28;20181;-65
2021/03/03 15:54:38;;;;;;;1999.90;999.90;;;21.00;55.80;;;;;;5029828;28;20211;-65
2021/03/03 15:57:05;;;;;;;1999.90;999.90;;;21.20;56.10;;;;;;5030791;28;20577;-63
2021/03/03 15:59:31;;;;;;;1999.90;999.90;;;21.40;56.20;;;;;;5029982;28;20207;-64
2021/03/03 16:01:56;;;;;;;1999.90;999.90;;;21.60;56.30;;;;;;5029682;28;20448;-62
2021/03/03 16:04:22;;;;;;;1999.90;999.90;;;21.80;56.50;;;;;;5027045;28;20317;-66
2021/03/03 16:06:48;;;;;;;1999.90;999.90;;;21.90;56.50;;;;;;5029987;28;20194;-66
2021/03/03 16:09:14;;;;;;;1999.90;999.90;;;22.00;56.60;;;;;;5026370;28;20453;-64
2021/03/03 16:11:40;;;;;;;1999.90;999.90;;;22.10;56.60;;;;;;5029676;28;20683;-63
2021/03/03 16:14:06;;;;;;;1999.90;999.90;;;22.20;56.60;;;;;;5027419;28;20233;-64
2021/03/03 16:16:32;;;;;;;1999.90;999.90;;;22.30;56.70;;;;;;5026553;28;20839;-64
2021/03/03 16:18:58;;;;;;;1999.90;999.90;;;22.40;56.80;;;;;;5042391;28;20588;-63
2021/03/03 16:21:24;;;;;;;1999.90;999.90;;;22.40;56.80;;;;;;5026626;28;20191;-66
2021/03/03 16:23:50;;;;;;;1999.90;999.90;;;22.50;56.80;;;;;;5026932;28;20648;-66
2021/03/03 16:26:15;;;;;;;1999.90;999.90;;;22.60;56.90;;;;;;5014965;28;20194;-65
2021/03/03 16:28:41;;;;;;;1999.90;999.90;;;22.60;56.90;;;;;;5014358;28;21025;-66
2021/03/03 16:31:10;;;;;;;1999.90;999.90;;;22.70;56.90;;;;;;5016998;28;20191;-64
2021/03/03 16:33:36;;;;;;;1999.90;999.90;;;22.80;56.90;;;;;;5010487;28;20478;-67
2021/03/03 16:36:04;;;;;;;1999.90;999.90;;;22.80;56.50;;;;;;5013384;28;20424;-64
2021/03/03 16:38:31;;;;;;;1999.90;999.90;;;22.80;56.60;;;;;;5014220;28;20946;-67
2021/03/03 16:40:58;;;;;;;1999.90;999.90;;;22.80;56.70;;;;;;5013050;28;20438;-64
2021/03/03 16:43:25;;;;;;;1999.90;999.90;;;22.80;56.60;;;;;;5009923;28;20473;-65
2021/03/03 16:45:51;;;;;;;1999.90;999.90;;;22.80;56.50;;;;;;5001297;28;20803;-66
2021/03/03 16:48:16;;;;;;;1999.90;999.90;;;22.80;56.40;;;;;;5009891;28;20525;-65
2021/03/03 16:50:44;;;;;;;1999.90;999.90;;;22.80;56.40;;;;;;5009789;28;21310;-65
2021/03/03 16:53:13;;;;;;;1999.90;999.90;;;22.90;56.50;;;;;;5011117;28;20195;-65
2021/03/03 16:55:40;;;;;;;1999.90;999.90;;;22.80;56.40;;;;;;5006242;28;20526;-66
2021/03/03 16:58:06;;;;;;;1999.90;999.90;;;22.90;56.40;;;;;;5009279;28;20443;-65
2021/03/03 17:00:33;;;;;;;1999.90;999.90;;;22.90;56.40;;;;;;5009496;28;20446;-64
2021/03/03 17:03:01;;;;;;;1999.90;999.90;;;22.90;56.40;;;;;;5008374;28;20490;-64
2021/03/03 17:05:28;;;;;;;1999.90;999.90;;;22.90;56.30;;;;;;5006688;28;20497;-64
2021/03/03 17:07:54;;;;;;;1999.90;999.90;;;22.90;56.30;;;;;;5006550;28;20452;-65
2021/03/03 17:10:19;;;;;;;1999.90;999.90;;;22.90;56.20;;;;;;5008757;28;20462;-64
2021/03/03 17:12:47;;;;;;;1999.90;999.90;;;22.90;56.30;;;;;;5009904;28;20449;-63
2021/03/03 17:15:13;;;;;;;1999.90;999.90;;;22.90;56.20;;;;;;5008232;28;20695;-63
2021/03/03 17:17:40;;;;;;;1999.90;999.90;;;22.90;56.20;;;;;;5010408;28;20529;-62
2021/03/03 17:20:08;;;;;;;1999.90;999.90;;;22.90;56.10;;;;;;5009495;28;20458;-62
2021/03/03 17:22:35;;;;;;;1999.90;999.90;;;22.90;56.10;;;;;;5007069;28;20430;-62
2021/03/03 17:25:01;;;;;;;1999.90;999.90;;;22.90;56.10;;;;;;5007330;28;20450;-62
2021/03/03 17:27:27;;;;;;;1999.90;999.90;;;22.90;56.10;;;;;;5007813;28;21227;-63
2021/03/03 17:29:53;;;;;;;1999.90;999.90;;;22.90;56.10;;;;;;5007911;28;20564;-62
2021/03/03 17:32:19;;;;;;;1999.90;999.90;;;23.00;56.20;;;;;;5007565;28;20179;-64
2021/03/03 17:34:45;;;;;;;1999.90;999.90;;;23.00;56.10;;;;;;5011083;28;20222;-66
2021/03/03 17:37:10;;;;;;;1999.90;999.90;;;23.00;56.10;;;;;;5008594;28;20195;-63
2021/03/03 17:39:37;;;;;;;1999.90;999.90;;;23.00;56.10;;;;;;5010438;28;20895;-64
2021/03/03 17:42:04;;;;;;;1999.90;999.90;;;23.00;56.10;;;;;;5021056;28;20179;-63
2021/03/03 17:44:30;;;;;;;1999.90;999.90;;;23.00;56.10;;;;;;5007564;28;20445;-63
2021/03/03 17:46:56;;;;;;;1999.90;999.90;;;23.00;56.10;;;;;;5006795;28;20516;-63
2021/03/03 17:49:22;;;;;;;1999.90;999.90;;;23.00;56.00;;;;;;5007712;28;20605;-63
2021/03/03 17:51:48;;;;;;;1999.90;999.90;;;23.00;56.00;;;;;;5007091;28;20194;-63
2021/03/03 17:54:14;;;;;;;1999.90;999.90;;;23.00;56.00;;;;;;5007034;28;20474;-62
2021/03/03 17:56:40;;;;;;;1999.90;999.90;;;23.00;55.90;;;;;;5003587;28;20461;-63
2021/03/03 17:59:06;;;;;;;1999.90;999.90;;;23.00;55.80;;;;;;5011198;28;20465;-63
2021/03/03 18:01:32;;;;;;;1999.90;999.90;;;23.00;55.80;;;;;;5013310;28;20195;-64
2021/03/03 18:03:58;;;;;;;1999.90;999.90;;;23.00;55.70;;;;;;5011507;28;20453;-68
2021/03/03 18:06:24;;;;;;;1999.90;999.90;;;23.00;55.70;;;;;;5011778;28;20454;-66
2021/03/03 18:08:50;;;;;;;1999.90;999.90;;;23.00;55.60;;;;;;5009913;28;20949;-66
2021/03/03 18:11:16;;;;;;;1999.90;999.90;;;23.00;55.60;;;;;;5010125;28;20553;-65
2021/03/03 18:13:42;;;;;;;1999.90;999.90;;;23.00;55.60;;;;;;5010718;28;20859;-65
2021/03/03 18:16:08;;;;;;;1999.90;999.90;;;23.00;55.60;;;;;;5012598;28;20418;-64
2021/03/03 18:18:34;;;;;;;1999.90;999.90;;;23.00;55.60;;;;;;5009953;28;20290;-63
2021/03/03 18:21:00;;;;;;;1999.90;999.90;;;23.10;55.60;;;;;;5009367;28;20191;-63
2021/03/03 18:23:26;;;;;;;1999.90;999.90;;;23.10;55.60;;;;;;5010820;28;20660;-62
2021/03/03 18:25:52;;;;;;;1999.90;999.90;;;23.00;55.50;;;;;;4984809;28;20443;-62
2021/03/03 18:28:19;;;;;;;1999.90;999.90;;;23.00;55.50;;;;;;5009057;28;20438;-64
2021/03/03 18:30:45;;;;;;;1999.90;999.90;;;23.00;55.60;;;;;;5011037;28;20438;-64
2021/03/03 18:33:11;;;;;;;1999.90;999.90;;;23.00;55.50;;;;;;5001336;28;20462;-64
2021/03/03 18:35:40;;;;;;;1999.90;999.90;;;23.00;55.60;;;;;;5008160;28;20986;-67
2021/03/03 18:38:09;;;;;;;1999.90;999.90;;;23.00;55.60;;;;;;5003690;28;20434;-64
2021/03/03 18:40:35;;;;;;;1999.90;999.90;;;23.00;55.60;;;;;;5007866;28;20426;-62
2021/03/03 18:43:01;;;;;;;1999.90;999.90;;;23.00;56.30;;;;;;5010734;28;21022;-64
2021/03/03 18:45:29;;;;;;;1999.90;999.90;;;23.00;57.30;;;;;;5011357;28;20458;-62
2021/03/03 18:47:55;;;;;;;1999.90;999.90;;;23.00;58.10;;;;;;5009250;28;20497;-64
2021/03/03 18:50:21;;;;;;;1999.90;999.90;;;23.10;59.00;;;;;;5011887;28;20865;-64
2021/03/03 18:52:47;;;;;;;1999.90;999.90;;;23.10;59.50;;;;;;5011634;28;20192;-65
2021/03/03 18:55:14;;;;;;;1999.90;999.90;;;23.10;59.20;;;;;;5011411;28;20235;-64
2021/03/03 18:57:41;;;;;;;1999.90;999.90;;;23.10;59.30;;;;;;5010114;28;20434;-64
2021/03/03 19:00:10;;;;;;;1999.90;999.90;;;23.10;59.40;;;;;;5011227;28;20822;-63
2021/03/03 19:02:36;;;;;;;1999.90;999.90;;;23.20;59.50;;;;;;5007012;28;20445;-64
2021/03/03 19:05:03;;;;;;;1999.90;999.90;;;23.20;59.50;;;;;;5007929;28;20966;-65
2021/03/03 19:07:29;;;;;;;1999.90;999.90;;;23.20;59.60;;;;;;5004607;28;20934;-65
2021/03/03 19:09:55;;;;;;;1999.90;999.90;;;23.20;59.50;;;;;;5007425;28;20466;-64
2021/03/03 19:12:22;;;;;;;1999.90;999.90;;;23.20;59.40;;;;;;5005589;28;20190;-65
2021/03/03 19:14:47;;;;;;;1999.90;999.90;;;23.10;59.10;;;;;;5004554;28;20223;-65
2021/03/03 19:17:14;;;;;;;1999.90;999.90;;;23.10;58.90;;;;;;5008910;28;20415;-65
2021/03/03 19:19:43;;;;;;;1999.90;999.90;;;23.10;59.40;;;;;;5024324;28;20214;-65
2021/03/03 19:22:10;;;;;;;1999.90;999.90;;;23.10;58.70;;;;;;5008810;28;20478;-65
2021/03/03 19:24:37;;;;;;;1999.90;999.90;;;23.10;58.50;;;;;;5008796;28;20520;-62
2021/03/03 19:27:04;;;;;;;1999.90;999.90;;;23.10;58.40;;;;;;5002878;28;20856;-66
2021/03/03 19:29:30;;;;;;;1999.90;999.90;;;23.10;58.30;;;;;;5009785;28;20958;-62
2021/03/03 19:31:56;;;;;;;1999.90;999.90;;;23.10;58.20;;;;;;5009160;28;20470;-63
2021/03/03 19:34:21;;;;;;;1999.90;999.90;;;23.10;58.10;;;;;;5009996;28;20294;-63
2021/03/03 19:36:47;;;;;;;1999.90;999.90;;;23.10;58.00;;;;;;5012873;28;20179;-65
2021/03/03 19:39:13;;;;;;;1999.90;999.90;;;23.10;57.90;;;;;;5009208;28;20211;-65
2021/03/03 19:41:39;;;;;;;1999.90;999.90;;;23.10;57.90;;;;;;5003620;28;20525;-65
2021/03/03 19:44:05;;;;;;;1999.90;999.90;;;23.00;57.70;;;;;;5008685;28;20449;-67
2021/03/03 19:46:31;;;;;;;1999.90;999.90;;;23.10;57.70;;;;;;5009748;28;20212;-64
2021/03/03 19:48:57;;;;;;;1999.90;999.90;;;23.10;57.60;;;;;;5009209;28;20915;-67
2021/03/03 19:51:29;;;;;;;1999.90;999.90;;;23.10;58.10;;;;;;5021446;28;20199;-65
2021/03/03 19:53:56;;;;;;;1999.90;999.90;;;23.10;57.50;;;;;;5023155;28;20860;-65
2021/03/03 19:56:22;;;;;;;1999.90;999.90;;;23.10;57.40;;;;;;5015025;28;20438;-63
2021/03/03 19:58:48;;;;;;;1999.90;999.90;;;23.00;57.30;;;;;;5006476;28;20500;-65
2021/03/03 20:01:13;;;;;;;1999.90;999.90;;;23.00;57.80;;;;;;5010621;28;21034;-65
2021/03/03 20:03:39;;;;;;;1999.90;999.90;;;23.00;57.60;;;;;;5012469;28;20198;-66
2021/03/03 20:06:05;;;;;;;1999.90;999.90;;;23.00;57.60;;;;;;5011877;28;20206;-67
2021/03/03 20:08:31;;;;;;;1999.90;999.90;;;23.00;57.50;;;;;;5008675;28;20215;-67
2021/03/03 20:10:57;;;;;;;1999.90;999.90;;;23.00;57.50;;;;;;5012414;28;20226;-68
2021/03/03 20:13:23;;;;;;;1999.90;999.90;;;23.00;57.40;;;;;;5011732;28;20254;-65
2021/03/03 20:15:48;;;;;;;1999.90;999.90;;;23.00;57.30;;;;;;5011624;28;20280;-65
2021/03/03 20:18:14;;;;;;;1999.90;999.90;;;23.00;57.20;;;;;;5006552;28;20187;-65
2021/03/03 20:20:40;;;;;;;1999.90;999.90;;;23.00;57.20;;;;;;5012561;28;20893;-66
2021/03/03 20:23:06;;;;;;;1999.90;999.90;;;23.00;57.10;;;;;;5012738;28;20547;-69
2021/03/03 20:25:32;;;;;;;1999.90;999.90;;;23.00;57.10;;;;;;5000322;28;20198;-66
2021/03/03 20:27:57;;;;;;;1999.90;999.90;;;23.00;57.00;;;;;;5024874;28;20661;-67
2021/03/03 20:30:26;;;;;;;1999.90;999.90;;;23.00;57.00;;;;;;5011684;28;20502;-66
2021/03/03 20:32:53;;;;;;;1999.90;999.90;;;23.00;57.00;;;;;;5011020;28;20187;-67
2021/03/03 20:35:20;;;;;;;1999.90;999.90;;;23.00;56.90;;;;;;5009966;28;20473;-66
2021/03/03 20:37:47;;;;;;;1999.90;999.90;;;23.00;56.90;;;;;;5012206;28;20490;-66
2021/03/03 20:40:14;;;;;;;1999.90;999.90;;;23.00;56.70;;;;;;5010545;28;20462;-66
2021/03/03 20:42:41;;;;;;;1999.90;999.90;;;23.00;56.70;;;;;;5012428;28;20831;-65
2021/03/03 20:45:07;;;;;;;1999.90;999.90;;;23.00;56.70;;;;;;5010459;28;20958;-67
2021/03/03 20:47:33;;;;;;;1999.90;999.90;;;23.00;56.60;;;;;;5012082;28;20480;-67
2021/03/03 20:49:59;;;;;;;1999.90;999.90;;;23.00;56.60;;;;;;5010914;28;20462;-67
2021/03/03 20:52:25;;;;;;;1999.90;999.90;;;23.00;56.50;;;;;;5011757;28;20191;-67
2021/03/03 20:54:51;;;;;;;1999.90;999.90;;;23.00;56.50;;;;;;5011227;28;20206;-68
2021/03/03 20:57:16;;;;;;;1999.90;999.90;;;23.00;56.40;;;;;;5010280;28;20185;-67
2021/03/03 20:59:42;;;;;;;1999.90;999.90;;;23.00;56.40;;;;;;5010456;28;20533;-66
2021/03/03 21:02:08;;;;;;;1999.90;999.90;;;23.00;56.40;;;;;;5011623;28;20746;-67
2021/03/03 21:04:33;;;;;;;1999.90;999.90;;;23.00;56.40;;;;;;5011159;28;20197;-67
2021/03/03 21:06:59;;;;;;;1999.90;999.90;;;23.00;56.30;;;;;;5026102;28;20233;-67
2021/03/03 21:09:25;;;;;;;1999.90;999.90;;;23.00;56.30;;;;;;5006123;28;20294;-66
2021/03/03 21:11:50;;;;;;;1999.90;999.90;;;23.00;56.30;;;;;;5010209;28;20321;-66
2021/03/03 21:14:16;;;;;;;1999.90;999.90;;;23.10;56.40;;;;;;5011367;28;20211;-63
2021/03/03 21:16:42;;;;;;;1999.90;999.90;;;23.00;56.30;;;;;;5011667;28;20195;-64
2021/03/03 21:19:08;;;;;;;1999.90;999.90;;;23.00;56.20;;;;;;5013199;28;20330;-64
2021/03/03 21:21:33;;;;;;;1999.90;999.90;;;23.00;56.10;;;;;;5011919;28;20195;-65
2021/03/03 21:23:59;;;;;;;1999.90;999.90;;;23.00;56.10;;;;;;5011278;28;20253;-65
2021/03/03 21:26:25;;;;;;;1999.90;999.90;;;23.00;56.10;;;;;;5010192;28;20940;-63
2021/03/03 21:28:51;;;;;;;1999.90;999.90;;;23.00;56.10;;;;;;5010940;28;20570;-63
2021/03/03 21:31:17;;;;;;;1999.90;999.90;;;23.00;56.10;;;;;;5009579;28;20192;-67
